Map

Track Data

SID SEASON NUMBER BASIN SUBBASIN NAME ISO_TIME NATURE LAT LON WMO_WIND WMO_PRES WMO_AGENCY TRACK_TYPE DIST2LAND LANDFALL IFLAG USA_AGENCY USA_ATCF_ID USA_LAT USA_LON USA_RECORD USA_STATUS USA_WIND USA_PRES USA_SSHS USA_R34_NE USA_R34_SE USA_R34_SW USA_R34_NW USA_R50_NE USA_R50_SE USA_R50_SW USA_R50_NW USA_R64_NE USA_R64_SE USA_R64_SW USA_R64_NW USA_POCI USA_ROCI USA_RMW USA_EYE TOKYO_LAT TOKYO_LON TOKYO_GRADE TOKYO_WIND TOKYO_PRES TOKYO_R50_DIR TOKYO_R50_LONG TOKYO_R50_SHORT TOKYO_R30_DIR TOKYO_R30_LONG TOKYO_R30_SHORT TOKYO_LAND CMA_LAT CMA_LON CMA_CAT CMA_WIND CMA_PRES HKO_LAT HKO_LON HKO_CAT HKO_WIND HKO_PRES NEWDELHI_LAT NEWDELHI_LON NEWDELHI_GRADE NEWDELHI_WIND NEWDELHI_PRES NEWDELHI_CI NEWDELHI_DP NEWDELHI_POCI REUNION_LAT REUNION_LON REUNION_TYPE REUNION_WIND REUNION_PRES REUNION_TNUM REUNION_CI REUNION_RMW REUNION_R34_NE REUNION_R34_SE REUNION_R34_SW REUNION_R34_NW REUNION_R50_NE REUNION_R50_SE REUNION_R50_SW REUNION_R50_NW REUNION_R64_NE REUNION_R64_SE REUNION_R64_SW REUNION_R64_NW BOM_LAT BOM_LON BOM_TYPE BOM_WIND BOM_PRES BOM_TNUM BOM_CI BOM_RMW BOM_R34_NE BOM_R34_SE BOM_R34_SW BOM_R34_NW BOM_R50_NE BOM_R50_SE BOM_R50_SW BOM_R50_NW BOM_R64_NE BOM_R64_SE BOM_R64_SW BOM_R64_NW BOM_ROCI BOM_POCI BOM_EYE BOM_POS_METHOD BOM_PRES_METHOD NADI_LAT NADI_LON NADI_CAT NADI_WIND NADI_PRES WELLINGTON_LAT WELLINGTON_LON WELLINGTON_WIND WELLINGTON_PRES DS824_LAT DS824_LON DS824_STAGE DS824_WIND DS824_PRES TD9636_LAT TD9636_LON TD9636_STAGE TD9636_WIND TD9636_PRES TD9635_LAT TD9635_LON TD9635_WIND TD9635_PRES TD9635_ROCI NEUMANN_LAT NEUMANN_LON NEUMANN_CLASS NEUMANN_WIND NEUMANN_PRES MLC_LAT MLC_LON MLC_CLASS MLC_WIND MLC_PRES USA_GUST BOM_GUST BOM_GUST_PER REUNION_GUST REUNION_GUST_PER USA_SEAHGT USA_SEARAD_NE USA_SEARAD_SE USA_SEARAD_SW USA_SEARAD_NW STORM_SPEED STORM_DIR
1995212N22287 1995 38 NA NA ERIN 1995-07-31 00:00:00 TS 22.3000 -73.2000 45 1004 hurdat_atl main 122 122 O_____________ hurdat_atl AL051995 22.3000 -73.2000 TS 45 1004 0 5 310
1995212N22287 1995 38 NA NA ERIN 1995-07-31 03:00:00 TS 22.4651 -73.4123 main 146 146 P_____________ AL051995 22.4651 -73.4123 TS 47 1003 0 5 309
1995212N22287 1995 38 NA NA ERIN 1995-07-31 06:00:00 TS 22.6000 -73.6000 50 1003 hurdat_atl main 161 161 O_____________ hurdat_atl AL051995 22.6000 -73.6000 TS 50 1003 0 4 306
1995212N22287 1995 38 NA NA ERIN 1995-07-31 09:00:00 TS 22.6924 -73.7501 main 178 178 P_____________ AL051995 22.6924 -73.7501 TS 52 1001 0 3 306
1995212N22287 1995 38 NA NA ERIN 1995-07-31 12:00:00 TS 22.8000 -73.9000 55 999 hurdat_atl main 191 191 O_____________ hurdat_atl AL051995 22.8000 -73.9000 TS 55 999 0 4 314
1995212N22287 1995 38 NA NA ERIN 1995-07-31 15:00:00 TS 22.9849 -74.0775 main 216 216 P_____________ AL051995 22.9849 -74.0775 TS 57 998 0 5 317
1995212N22287 1995 38 NA NA ERIN 1995-07-31 18:00:00 TS 23.2000 -74.3000 60 997 hurdat_atl main 242 242 O_____________ hurdat_atl AL051995 23.2000 -74.3000 TS 60 997 0 6 311
1995212N22287 1995 38 NA NA ERIN 1995-07-31 21:00:00 TS 23.3774 -74.5703 main 273 273 P_____________ AL051995 23.3774 -74.5703 TS 65 994 1 7 306
1995212N22287 1995 38 NA NA ERIN 1995-08-01 00:00:00 TS 23.6000 -74.9000 70 992 hurdat_atl main 299 252 O_____________ hurdat_atl AL051995 23.6000 -74.9000 HU 70 992 1 8 307
1995212N22287 1995 38 NA NA ERIN 1995-08-01 03:00:00 TS 23.8901 -75.3001 main 252 203 P_____________ AL051995 23.8901 -75.3001 HU 72 990 1 10 314
1995212N22287 1995 38 NA NA ERIN 1995-08-01 06:00:00 TS 24.3000 -75.7000 75 988 hurdat_atl main 203 182 O_____________ hurdat_atl AL051995 24.3000 -75.7000 HU 75 988 1 12 329
1995212N22287 1995 38 NA NA ERIN 1995-08-01 09:00:00 TS 24.8918 -75.9557 main 177 174 P_____________ AL051995 24.8918 -75.9557 HU 75 986 1 13 336
1995212N22287 1995 38 NA NA ERIN 1995-08-01 12:00:00 TS 25.5000 -76.3000 75 985 hurdat_atl main 174 141 O_____________ hurdat_atl AL051995 25.5000 -76.3000 HU 75 985 1 14 320
1995212N22287 1995 38 NA NA ERIN 1995-08-01 15:00:00 TS 25.9454 -76.9473 main 141 129 P_____________ AL051995 25.9454 -76.9473 HU 75 982 1 15 302
1995212N22287 1995 38 NA NA ERIN 1995-08-01 18:00:00 TS 26.3000 -77.7000 75 980 hurdat_atl main 137 135 O_____________ hurdat_atl AL051995 26.3000 -77.7000 HU 75 980 1 14 297
1995212N22287 1995 38 NA NA ERIN 1995-08-01 21:00:00 TS 26.5995 -78.3510 main 160 109 P_____________ AL051995 26.5995 -78.3510 HU 75 981 1 13 297
1995212N22287 1995 38 NA NA ERIN 1995-08-02 00:00:00 TS 26.9000 -79.0000 75 982 hurdat_atl main 99 9 O_____________ hurdat_atl AL051995 26.9000 -79.0000 HU 75 982 1 19 295
1995212N22287 1995 38 NA NA ERIN 1995-08-02 03:00:00 TS 27.4132 -80.2750 main 0 0 P_____________ AL051995 27.4132 -80.2750 HU 75 983 1 15 303
1995212N22287 1995 38 NA NA ERIN 1995-08-02 06:00:00 TS 27.7000 -80.4000 75 985 hurdat_atl main 9 9 O_____________ hurdat_atl AL051995 27.7000 -80.4000 HU 75 985 1 5 355
1995212N22287 1995 38 NA NA ERIN 1995-08-02 06:15:00 TS 27.7000 -80.3000 75 984 hurdat_atl main 14 9 O_____________ hurdat_atl AL051995 27.7000 -80.3000 L HU 75 984 1 4 342
1995212N22287 1995 38 NA NA ERIN 1995-08-02 09:00:00 TS 27.8686 -80.4593 main 0 0 P_____________ AL051995 27.8686 -80.4593 HU 63 986 0 16 289
1995212N22287 1995 38 NA NA ERIN 1995-08-02 12:00:00 TS 28.2000 -81.9000 50 990 hurdat_atl main 0 0 O_____________ hurdat_atl AL051995 28.2000 -81.9000 TS 50 990 0 20 286
1995212N22287 1995 38 NA GM ERIN 1995-08-02 15:00:00 TS 28.4239 -82.6781 main 9 9 P_____________ AL051995 28.4239 -82.6781 TS 55 989 0 14 287
1995212N22287 1995 38 NA GM ERIN 1995-08-02 18:00:00 TS 28.6000 -83.4000 60 988 hurdat_atl main 73 73 O_____________ hurdat_atl AL051995 28.6000 -83.4000 TS 60 988 0 13 282
1995212N22287 1995 38 NA GM ERIN 1995-08-02 21:00:00 TS 28.6923 -84.0882 main 112 102 P_____________ AL051995 28.6923 -84.0882 TS 62 986 0 12 280
1995212N22287 1995 38 NA GM ERIN 1995-08-03 00:00:00 TS 28.8000 -84.7000 65 985 hurdat_atl main 102 78 O_____________ hurdat_atl AL051995 28.8000 -84.7000 HU 65 985 1 11 289
1995212N22287 1995 38 NA GM ERIN 1995-08-03 03:00:00 TS 29.0271 -85.2299 main 78 48 P_____________ AL051995 29.0271 -85.2299 HU 67 982 1 10 300
1995212N22287 1995 38 NA GM ERIN 1995-08-03 06:00:00 TS 29.3000 -85.7000 70 979 hurdat_atl main 53 51 O_____________ hurdat_atl AL051995 29.3000 -85.7000 HU 70 979 1 10 301
1995212N22287 1995 38 NA GM ERIN 1995-08-03 09:00:00 TS 29.5124 -86.1691 main 80 66 P_____________ AL051995 29.5124 -86.1691 HU 75 976 1 9 303
1995212N22287 1995 38 NA GM ERIN 1995-08-03 12:00:00 TS 29.8000 -86.6000 80 974 hurdat_atl main 66 44 O_____________ hurdat_atl AL051995 29.8000 -86.6000 HU 80 974 1 10 312
1995212N22287 1995 38 NA GM ERIN 1995-08-03 13:30:00 TS 30.0000 -86.8000 85 973 hurdat_atl main 44 22 O_____________ hurdat_atl AL051995 30.0000 -86.8000 I HU 85 973 2 11 315
1995212N22287 1995 38 NA GM ERIN 1995-08-03 15:00:00 TS 30.1763 -87.0369 main 22 0 P_____________ AL051995 30.1763 -87.0369 HU 79 973 1 11 311
1995212N22287 1995 38 NA GM ERIN 1995-08-03 16:00:00 TS 30.3000 -87.2000 75 973 hurdat_atl main 0 0 O_____________ hurdat_atl AL051995 30.3000 -87.2000 L HU 75 973 1 12 317
1995212N22287 1995 38 NA NA ERIN 1995-08-03 18:00:00 TS 30.6000 -87.5000 65 985 hurdat_atl main 0 0 O_____________ hurdat_atl AL051995 30.6000 -87.5000 HU 65 985 1 12 315
1995212N22287 1995 38 NA NA ERIN 1995-08-03 21:00:00 TS 31.0054 -88.0143 main 0 0 P_____________ AL051995 31.0054 -88.0143 HU 55 991 0 12 313
1995212N22287 1995 38 NA NA ERIN 1995-08-04 00:00:00 TS 31.4000 -88.5000 45 997 hurdat_atl main 0 0 O_____________ hurdat_atl AL051995 31.4000 -88.5000 TS 45 997 0 11 320
1995212N22287 1995 38 NA NA ERIN 1995-08-04 03:00:00 TS 31.8422 -88.8306 main 0 0 P_____________ AL051995 31.8422 -88.8306 TS 40 999 0 10 331
1995212N22287 1995 38 NA NA ERIN 1995-08-04 06:00:00 TS 32.3000 -89.1000 35 1001 hurdat_atl main 0 0 O_____________ hurdat_atl AL051995 32.3000 -89.1000 TS 35 1001 0 10 332
1995212N22287 1995 38 NA NA ERIN 1995-08-04 09:00:00 TS 32.7500 -89.4077 main 0 0 P_____________ AL051995 32.7500 -89.4077 TS 27 1002 -1 10 331
1995212N22287 1995 38 NA NA ERIN 1995-08-04 12:00:00 TS 33.2000 -89.7000 20 1003 hurdat_atl main 0 0 O_____________ hurdat_atl AL051995 33.2000 -89.7000 TD 20 1003 -1 10 332
1995212N22287 1995 38 NA NA ERIN 1995-08-04 15:00:00 TS 33.6650 -89.9947 main 0 0 P_____________ AL051995 33.6650 -89.9947 TD 20 1003 -1 10 335
1995212N22287 1995 38 NA NA ERIN 1995-08-04 18:00:00 TS 34.1000 -90.2000 20 1003 hurdat_atl main 0 0 O_____________ hurdat_atl AL051995 34.1000 -90.2000 TD 20 1003 -1 8 346
1995212N22287 1995 38 NA NA ERIN 1995-08-04 21:00:00 TS 34.4724 -90.2455 main 0 0 P_____________ AL051995 34.4724 -90.2455 TD 20 1003 -1 7 0
1995212N22287 1995 38 NA NA ERIN 1995-08-05 00:00:00 TS 34.8000 -90.2000 20 1003 hurdat_atl main 0 0 O_____________ hurdat_atl AL051995 34.8000 -90.2000 TD 20 1003 -1 6 6
1995212N22287 1995 38 NA NA ERIN 1995-08-05 03:00:00 TS 35.0850 -90.1723 main 0 0 P_____________ AL051995 35.0850 -90.1723 TD 20 1003 -1 6 8
1995212N22287 1995 38 NA NA ERIN 1995-08-05 06:00:00 TS 35.4000 -90.1000 20 1003 hurdat_atl main 0 0 O_____________ hurdat_atl AL051995 35.4000 -90.1000 TD 20 1003 -1 7 10
1995212N22287 1995 38 NA NA ERIN 1995-08-05 09:00:00 TS 35.8047 -90.0164 main 0 0 P_____________ AL051995 35.8047 -90.0164 TD 20 1003 -1 9 15
1995212N22287 1995 38 NA NA ERIN 1995-08-05 12:00:00 TS 36.3000 -89.8000 20 1003 hurdat_atl main 0 0 O_____________ hurdat_atl AL051995 36.3000 -89.8000 TD 20 1003 -1 12 23
1995212N22287 1995 38 NA NA ERIN 1995-08-05 15:00:00 TS 36.8990 -89.4271 main 0 0 P_____________ AL051995 36.8990 -89.4271 TD 20 1003 -1 14 34
1995212N22287 1995 38 NA NA ERIN 1995-08-05 18:00:00 TS 37.5000 -88.8000 20 1003 hurdat_atl main 0 0 O_____________ hurdat_atl AL051995 37.5000 -88.8000 TD 20 1003 -1 17 48
1995212N22287 1995 38 NA NA ERIN 1995-08-05 21:00:00 TS 38.0184 -87.8690 main 0 0 P_____________ AL051995 38.0184 -87.8690 TD 20 1003 -1 18 60
1995212N22287 1995 38 NA NA ERIN 1995-08-06 00:00:00 TS 38.4000 -86.8000 20 1003 hurdat_atl main 0 0 O_____________ hurdat_atl AL051995 38.4000 -86.8000 TD 20 1003 -1 16 69
1995212N22287 1995 38 NA NA ERIN 1995-08-06 03:00:00 TS 38.6069 -85.9155 main 0 0 P_____________ AL051995 38.6069 -85.9155 TD 20 1004 -1 15 79
1995212N22287 1995 38 NA NA ERIN 1995-08-06 06:00:00 TS 38.7000 -84.9000 20 1005 hurdat_atl main 0 0 O_____________ hurdat_atl AL051995 38.7000 -84.9000 TD 20 1005 -1 18 85
1995212N22287 1995 38 NA NA ERIN 1995-08-06 09:00:00 TS 38.7609 -83.5536 main 0 0 P_____________ AL051995 38.7609 -83.5536 TD 20 1006 -1 23 87
1995212N22287 1995 38 NA NA ERIN 1995-08-06 12:00:00 TS 38.8000 -82.0000 20 1008 hurdat_atl main 0 O_____________ hurdat_atl AL051995 38.8000 -82.0000 TD 20 1008 -1 24 88

About IBTrACS Database

This database is a web-friendly format of International Best Track Archive for Climate Stewardship (IBTrACS), a global best track data archive curated by NOAA dating back to 1842.

Updated: 2021-12-08